Terminal Aerodrome Forecast
Issued by NWS

Home | Current Version | Previous Version | Graphics & Text | Print | Product List | Glossary On
Versions: 1 2 3 4 5 6 7 8 9 10 11 12 13 14 15 16 17 18
000
FTUS43 KABR 211738
TAFPIR
TAF
KPIR 211738Z 2118/2218 30016G24KT P6SM -RA OVC070
     FM212200 30016G24KT P6SM BKN090
     FM220100 29010KT P6SM FEW200
     FM220700 26006KT P6SM SKC
     FM221700 21010KT P6SM SCT200=

USA.gov is the U.S. government's official web portal to all federal, state and local government web resources and services.